Princeville, Canada
Current Conditions -  °F | °C
As of 4:00 AM on Saturday 01 Nov 2014 (Local Time) from CYRQ Reporting Station
Scattered Clouds Scattered Clouds  
Wind Chill: 29°   Ceiling: Unl
Heat Index: 36°   Visibility: 9mi
Dew Point: 28°   Wind: 9mph
Humidity: 75%   Direction: 20°NNE
Pressure: 30.11"   Gusts: NA
Location:  46.17°N, 71.88°W
Report Text: CYRQ 010800Z AUTO 02008KT 9SM SCT100 02/M02 A3011 RMK SLP198
Loading
Personal Weather Stations






























Interactive Weather Map
Tropical Storm Tracking
New forecast layout! Learn more

10-Day Weather Forecast

Advertisements
Track Severe Weather on mobile